createdAt,value
2019-02-11T00:01:47.255Z,2.00
2019-02-11T00:04:19.388Z,1.80
2019-02-11T00:06:51.642Z,2.03
2019-02-11T00:09:23.142Z,1.93
2019-02-11T00:11:54.792Z,2.00
2019-02-11T00:14:26.639Z,2.17
2019-02-11T00:16:58.303Z,1.77
2019-02-11T00:19:29.993Z,1.97
2019-02-11T00:22:02.233Z,2.00
2019-02-11T00:24:35.133Z,1.73
2019-02-11T00:27:06.751Z,2.30
2019-02-11T00:29:38.263Z,1.57
2019-02-11T00:32:09.906Z,1.90
2019-02-11T00:34:41.461Z,2.10
2019-02-11T00:37:12.881Z,1.80
2019-02-11T00:39:44.743Z,2.03
2019-02-11T00:42:16.823Z,2.37
2019-02-11T00:44:51.281Z,2.10
2019-02-11T00:47:23.597Z,2.17
2019-02-11T00:49:55.263Z,1.90
2019-02-11T00:52:26.815Z,2.40
2019-02-11T00:54:58.391Z,1.70
2019-02-11T00:57:29.919Z,2.07
2019-02-11T01:00:03.167Z,2.70
2019-02-11T01:02:36.015Z,1.60
2019-02-11T01:05:08.014Z,1.87
2019-02-11T01:07:40.637Z,1.80
2019-02-11T01:10:13.197Z,1.90
2019-02-11T01:12:45.190Z,1.80
2019-02-11T01:15:16.698Z,2.00
2019-02-11T01:17:48.606Z,2.07
2019-02-11T01:20:23.770Z,2.57
2019-02-11T01:22:55.902Z,1.50
2019-02-11T01:25:27.792Z,2.23
2019-02-11T01:27:59.581Z,2.20
2019-02-11T01:30:31.379Z,2.20
2019-02-11T01:33:03.232Z,2.60
2019-02-11T01:35:34.951Z,1.93
2019-02-11T01:38:06.866Z,1.90
2019-02-11T01:40:39.640Z,1.93
2019-02-11T01:43:11.320Z,1.97
2019-02-11T01:45:43.055Z,2.23
2019-02-11T01:48:14.572Z,2.03
2019-02-11T01:50:46.066Z,2.33
2019-02-11T01:53:19.342Z,2.70
2019-02-11T01:55:51.022Z,2.40
2019-02-11T01:58:22.642Z,2.07
2019-02-11T02:00:53.924Z,2.20
2019-02-11T02:03:25.355Z,2.00
2019-02-11T02:05:56.668Z,2.60
2019-02-11T02:08:28.102Z,2.27
2019-02-11T02:10:59.514Z,2.17
2019-02-11T02:13:32.121Z,2.30
2019-02-11T02:16:03.450Z,1.70
2019-02-11T02:18:34.969Z,2.13
2019-02-11T02:21:06.599Z,2.00
2019-02-11T02:23:38.460Z,2.33
2019-02-11T02:26:09.768Z,2.20
2019-02-11T02:28:41.408Z,2.47
2019-02-11T02:31:13.054Z,2.80
2019-02-11T02:33:44.641Z,1.93
2019-02-11T02:36:16.429Z,1.83
2019-02-11T02:38:48.205Z,1.93
2019-02-11T02:41:19.727Z,1.90
2019-02-11T02:43:55.720Z,1.77
2019-02-11T02:46:24.895Z,2.00
2019-02-11T02:48:56.332Z,2.57
2019-02-11T02:51:27.669Z,2.00
2019-02-11T02:53:59.341Z,2.03
2019-02-11T02:56:31.328Z,2.13
2019-02-11T02:59:04.922Z,1.83
2019-02-11T03:01:37.594Z,1.80
2019-02-11T03:04:09.374Z,1.87
2019-02-11T03:06:42.919Z,1.90
2019-02-11T03:09:14.649Z,2.33
2019-02-11T03:11:47.821Z,1.63
2019-02-11T03:14:19.511Z,1.60
2019-02-11T03:16:50.993Z,1.83
2019-02-11T03:19:22.654Z,2.57
2019-02-11T03:21:54.187Z,2.63
2019-02-11T03:24:25.991Z,1.70
2019-02-11T03:26:57.328Z,1.97
2019-02-11T03:29:28.687Z,2.03
2019-02-11T03:32:00.324Z,2.10
2019-02-11T03:34:31.970Z,2.20
2019-02-11T03:37:04.078Z,2.00
2019-02-11T03:39:35.685Z,2.20
2019-02-11T03:42:07.443Z,1.90
2019-02-11T03:44:39.261Z,2.20
2019-02-11T03:47:12.085Z,2.23
2019-02-11T03:49:43.456Z,2.07
2019-02-11T03:52:15.343Z,2.20
2019-02-11T03:54:46.895Z,2.00
2019-02-11T03:57:18.845Z,1.87
2019-02-11T03:59:50.280Z,2.30
2019-02-11T04:02:21.728Z,1.80
2019-02-11T04:04:54.685Z,1.80
2019-02-11T04:07:26.076Z,2.00
2019-02-11T04:09:57.910Z,2.60
2019-02-11T04:12:29.600Z,2.20
2019-02-11T04:15:01.068Z,2.20
2019-02-11T04:17:32.714Z,2.20
2019-02-11T04:20:04.488Z,2.03
2019-02-11T04:22:36.677Z,2.43
2019-02-11T04:25:09.542Z,2.30
2019-02-11T04:27:41.994Z,2.37
2019-02-11T04:30:15.261Z,2.10
2019-02-11T04:32:46.849Z,2.30
2019-02-11T04:35:18.742Z,2.00
2019-02-11T04:37:50.170Z,2.37
2019-02-11T04:40:21.695Z,1.63
2019-02-11T04:42:53.033Z,2.30
2019-02-11T04:45:24.445Z,2.77
2019-02-11T04:47:56.000Z,2.73
2019-02-11T04:50:28.780Z,2.33
2019-02-11T04:53:00.152Z,1.97
2019-02-11T04:55:31.623Z,1.90
2019-02-11T04:58:02.938Z,2.00
2019-02-11T05:00:34.574Z,1.90
2019-02-11T05:03:06.062Z,2.10
2019-02-11T05:05:37.552Z,1.90
2019-02-11T05:08:08.966Z,2.50
2019-02-11T05:10:40.330Z,2.57
2019-02-11T05:13:12.375Z,2.40
2019-02-11T05:15:43.858Z,2.00
2019-02-11T05:18:16.900Z,2.40
2019-02-11T05:20:50.430Z,2.23
2019-02-11T05:23:22.111Z,2.27
2019-02-11T05:25:55.663Z,2.10
2019-02-11T05:28:27.302Z,3.03
2019-02-11T05:30:59.275Z,2.27
2019-02-11T05:33:30.723Z,2.00
2019-02-11T05:36:02.665Z,2.57
2019-02-11T05:38:34.235Z,2.10
2019-02-11T05:41:05.698Z,2.17
2019-02-11T05:43:37.327Z,2.13
2019-02-11T05:46:09.202Z,1.73
2019-02-11T05:48:40.754Z,2.20
2019-02-11T05:51:12.512Z,1.90
2019-02-11T05:53:45.309Z,1.83
2019-02-11T05:56:16.731Z,2.20
2019-02-11T05:58:48.276Z,2.90
2019-02-11T06:01:20.216Z,2.07
2019-02-11T06:03:51.981Z,2.50
2019-02-11T06:06:23.552Z,1.90
2019-02-11T06:08:55.345Z,2.40
2019-02-11T06:11:28.465Z,2.57
2019-02-11T06:14:01.256Z,2.53
2019-02-11T06:16:33.236Z,3.13
2019-02-11T06:19:05.044Z,3.10
2019-02-11T06:21:36.469Z,3.40
2019-02-11T06:24:08.252Z,3.40
2019-02-11T06:26:40.018Z,3.33
2019-02-11T06:29:11.966Z,5.63
2019-02-11T06:31:43.499Z,6.60
2019-02-11T06:34:15.286Z,8.93
2019-02-11T06:36:46.642Z,7.80
2019-02-11T06:39:18.054Z,5.10
2019-02-11T06:41:49.748Z,2.90
2019-02-11T06:44:21.280Z,3.20
2019-02-11T06:46:57.716Z,2.50
2019-02-11T06:49:29.856Z,2.73
2019-02-11T06:52:01.391Z,2.07
2019-02-11T06:54:32.736Z,2.37
2019-02-11T06:57:04.357Z,2.50
2019-02-11T06:59:36.597Z,3.33
2019-02-11T07:02:08.107Z,3.07
2019-02-11T07:04:39.954Z,3.33
2019-02-11T07:07:12.449Z,3.03
2019-02-11T07:09:43.879Z,3.40
2019-02-11T07:12:16.800Z,3.27
2019-02-11T07:14:48.582Z,4.03
2019-02-11T07:17:20.721Z,3.27
2019-02-11T07:19:52.468Z,5.70
2019-02-11T07:22:25.698Z,4.97
2019-02-11T07:24:57.113Z,5.37
2019-02-11T07:27:28.706Z,4.53
2019-02-11T07:30:00.295Z,4.50
2019-02-11T07:32:33.107Z,6.30
2019-02-11T07:35:04.637Z,7.93
2019-02-11T07:37:37.982Z,6.83
2019-02-11T07:40:09.973Z,7.10
2019-02-11T07:42:46.959Z,4.23
2019-02-11T07:45:32.879Z,4.60
2019-02-11T07:48:04.540Z,4.43
2019-02-11T07:50:36.227Z,4.17
2019-02-11T07:53:08.016Z,4.07
2019-02-11T07:55:41.918Z,3.63
2019-02-11T07:58:14.087Z,3.53
2019-02-11T08:00:45.731Z,3.73
2019-02-11T08:03:19.065Z,3.90
2019-02-11T08:05:50.780Z,3.67
2019-02-11T08:08:22.327Z,3.43
2019-02-11T08:10:53.871Z,3.70
2019-02-11T08:13:26.734Z,4.90
2019-02-11T08:15:59.124Z,3.70
2019-02-11T08:18:30.578Z,3.70
2019-02-11T08:21:02.595Z,3.70
2019-02-11T08:23:34.294Z,3.50
2019-02-11T08:26:06.251Z,3.60
2019-02-11T08:28:38.823Z,3.90
2019-02-11T08:31:11.549Z,3.80
2019-02-11T08:33:43.279Z,3.97
2019-02-11T08:36:14.623Z,4.40
2019-02-11T08:38:46.774Z,4.70
2019-02-11T08:41:18.743Z,3.83
2019-02-11T08:43:50.370Z,4.43
2019-02-11T08:46:21.893Z,4.17
2019-02-11T08:48:53.369Z,4.67
2019-02-11T08:51:26.177Z,4.47
2019-02-11T08:53:59.062Z,5.40
2019-02-11T08:56:30.627Z,4.40
2019-02-11T08:59:02.287Z,4.87
2019-02-11T09:01:34.398Z,4.20
2019-02-11T09:04:07.492Z,4.17
2019-02-11T09:06:39.859Z,3.80
2019-02-11T09:09:11.651Z,4.03
2019-02-11T09:11:43.502Z,3.50
2019-02-11T09:14:16.260Z,3.30
2019-02-11T09:16:48.186Z,2.73
2019-02-11T09:19:19.986Z,3.20
2019-02-11T09:21:51.916Z,3.10
2019-02-11T09:24:24.754Z,2.90
2019-02-11T09:26:56.170Z,2.80
2019-02-11T09:29:29.486Z,3.07
2019-02-11T09:32:01.066Z,2.77
2019-02-11T09:34:32.824Z,3.47
2019-02-11T09:37:04.682Z,3.30
2019-02-11T09:39:36.590Z,3.03
2019-02-11T09:42:08.110Z,2.73
2019-02-11T09:44:39.521Z,3.40
2019-02-11T09:47:12.302Z,2.70
2019-02-11T09:49:44.740Z,2.60
2019-02-11T09:52:16.496Z,2.47
2019-02-11T09:54:48.589Z,2.57
2019-02-11T09:57:22.038Z,2.50
2019-02-11T09:59:54.992Z,2.60
2019-02-11T10:02:27.036Z,2.60
2019-02-11T10:04:59.609Z,2.33
2019-02-11T10:07:31.241Z,2.27
2019-02-11T10:10:04.089Z,2.80
2019-02-11T10:12:35.989Z,2.30
2019-02-11T10:15:09.262Z,2.77
2019-02-11T10:17:41.043Z,2.33
2019-02-11T10:20:12.842Z,2.30
2019-02-11T10:22:44.399Z,2.43
2019-02-11T10:25:21.421Z,2.20
2019-02-11T10:27:54.170Z,2.37
2019-02-11T10:30:25.666Z,2.00
2019-02-11T10:32:57.618Z,2.60
2019-02-11T10:35:29.136Z,2.40
2019-02-11T10:38:01.137Z,2.07
2019-02-11T10:40:35.868Z,2.37
2019-02-11T10:43:08.441Z,2.00
2019-02-11T10:45:40.029Z,2.13
2019-02-11T10:48:11.712Z,1.90
2019-02-11T10:50:43.429Z,2.23
2019-02-11T10:53:15.228Z,2.40
2019-02-11T10:55:46.880Z,2.07
2019-02-11T10:58:18.416Z,1.90
2019-02-11T11:00:49.903Z,2.10
2019-02-11T11:03:23.026Z,2.40
2019-02-11T11:05:54.621Z,2.30
2019-02-11T11:08:26.210Z,2.10
2019-02-11T11:10:57.844Z,2.10
2019-02-11T11:13:29.472Z,2.30
2019-02-11T11:16:03.036Z,1.80
2019-02-11T11:18:35.776Z,2.10
2019-02-11T11:21:09.126Z,2.30
2019-02-11T11:23:40.826Z,2.50
2019-02-11T11:26:12.470Z,2.07
2019-02-11T11:28:44.110Z,2.17
2019-02-11T11:31:15.645Z,2.50
2019-02-11T11:33:47.193Z,2.20
2019-02-11T11:36:19.847Z,2.03
2019-02-11T11:41:39.528Z,1.90
2019-02-11T11:44:12.796Z,2.13
2019-02-11T11:46:47.103Z,2.33
2019-02-11T11:49:18.009Z,2.07
2019-02-11T11:51:49.794Z,2.20
2019-02-11T11:54:21.825Z,1.93
2019-02-11T11:56:53.485Z,2.80
2019-02-11T11:59:25.084Z,2.70
2019-02-11T12:01:56.704Z,2.87
2019-02-11T12:04:28.375Z,2.13
2019-02-11T12:06:59.854Z,2.57
2019-02-11T12:09:32.228Z,2.27
2019-02-11T12:12:04.124Z,2.17
2019-02-11T12:14:35.695Z,2.00
2019-02-11T12:17:07.454Z,2.13
2019-02-11T12:19:40.404Z,2.27
2019-02-11T12:22:13.889Z,1.93
2019-02-11T12:24:45.898Z,2.77
2019-02-11T12:27:17.882Z,2.60
2019-02-11T12:29:49.952Z,2.40
2019-02-11T12:32:21.795Z,2.27
2019-02-11T12:34:53.330Z,2.10
2019-02-11T12:37:26.529Z,2.10
2019-02-11T12:39:58.171Z,2.20
2019-02-11T12:42:31.778Z,2.40
2019-02-11T12:45:04.387Z,1.80
2019-02-11T12:47:36.190Z,2.50
2019-02-11T12:50:08.660Z,2.77
2019-02-11T12:52:40.366Z,2.83
2019-02-11T12:55:12.674Z,2.50
2019-02-11T12:57:44.289Z,2.27
2019-02-11T13:00:20.839Z,2.40
2019-02-11T13:02:52.554Z,2.40
2019-02-11T13:05:43.371Z,2.87
2019-02-11T13:07:59.050Z,2.50
2019-02-11T13:10:30.455Z,2.97
2019-02-11T13:13:06.002Z,2.33
2019-02-11T13:15:58.608Z,2.37
2019-02-11T13:18:09.980Z,2.60
2019-02-11T13:20:41.500Z,2.60
2019-02-11T13:23:13.349Z,3.00
2019-02-11T13:25:44.787Z,2.80
2019-02-11T13:28:16.301Z,2.80
2019-02-11T13:30:48.316Z,2.27
2019-02-11T13:33:20.133Z,2.80
2019-02-11T13:35:51.746Z,3.00
2019-02-11T13:38:23.691Z,2.30
2019-02-11T13:40:55.184Z,2.40
2019-02-11T13:43:32.626Z,2.83
2019-02-11T13:46:04.400Z,2.83
2019-02-11T13:48:35.950Z,2.30
2019-02-11T13:51:07.517Z,2.50
2019-02-11T13:53:43.639Z,2.53
2019-02-11T13:56:12.829Z,1.90
2019-02-11T13:58:45.756Z,2.43
2019-02-11T14:01:17.960Z,2.30
2019-02-11T14:03:49.523Z,2.40
2019-02-11T14:06:22.269Z,2.00
2019-02-11T14:08:53.887Z,2.17
2019-02-11T14:11:27.136Z,1.87
2019-02-11T14:14:03.067Z,2.37
2019-02-11T14:16:31.655Z,1.90
2019-02-11T14:19:03.484Z,1.90
2019-02-11T14:21:35.139Z,2.00
2019-02-11T14:24:08.076Z,2.40
2019-02-11T14:26:41.441Z,2.13
2019-02-11T14:29:13.243Z,2.30
2019-02-11T14:31:45.100Z,1.97
2019-02-11T14:34:17.799Z,2.20
2019-02-11T14:36:50.662Z,2.40
2019-02-11T14:39:22.489Z,2.13
2019-02-11T14:41:54.580Z,1.97
2019-02-11T14:44:26.108Z,2.40
2019-02-11T14:47:00.718Z,1.97
2019-02-11T14:49:32.308Z,1.93
2019-02-11T14:52:05.840Z,1.90
2019-02-11T14:54:38.727Z,2.10
2019-02-11T14:57:11.440Z,1.93
2019-02-11T14:59:45.097Z,1.97
2019-02-11T15:02:16.981Z,2.63
2019-02-11T15:04:49.536Z,2.47
2019-02-11T15:07:23.147Z,2.50
2019-02-11T15:09:54.848Z,2.50
2019-02-11T15:12:26.414Z,2.30
2019-02-11T15:14:58.152Z,2.60
2019-02-11T15:17:30.063Z,2.20
2019-02-11T15:20:03.106Z,2.10
2019-02-11T15:22:34.617Z,2.40
2019-02-11T15:25:07.407Z,2.73
2019-02-11T15:27:39.345Z,3.03
2019-02-11T15:30:14.045Z,2.63
2019-02-11T15:32:45.864Z,2.40
2019-02-11T15:35:17.461Z,2.77
2019-02-11T15:37:49.419Z,2.50
2019-02-11T15:40:22.435Z,2.20
2019-02-11T15:42:55.038Z,2.50
2019-02-11T15:45:26.535Z,2.20
2019-02-11T15:47:58.090Z,3.00
2019-02-11T15:50:30.672Z,2.90
2019-02-11T15:53:02.259Z,3.10
2019-02-11T15:55:33.771Z,2.77
2019-02-11T15:58:05.682Z,2.63
2019-02-11T16:00:40.634Z,2.30
2019-02-11T16:03:14.128Z,2.50
2019-02-11T16:05:49.723Z,2.60
2019-02-11T16:08:20.461Z,2.53
2019-02-11T16:11:01.040Z,3.03
2019-02-11T16:13:25.718Z,2.70
2019-02-11T16:15:59.061Z,3.40
2019-02-11T16:18:30.820Z,2.40
2019-02-11T16:21:02.616Z,2.50
2019-02-11T16:23:34.785Z,2.03
2019-02-11T16:26:06.237Z,2.30
2019-02-11T16:28:37.802Z,2.67
2019-02-11T16:31:11.447Z,2.40
2019-02-11T16:33:45.025Z,3.00
2019-02-11T16:36:16.651Z,2.40
2019-02-11T16:38:48.237Z,2.77
2019-02-11T16:41:20.036Z,2.57
2019-02-11T16:43:52.663Z,2.40
2019-02-11T16:46:24.494Z,2.70
2019-02-11T16:49:00.696Z,2.80
2019-02-11T16:51:29.313Z,2.70
2019-02-11T16:54:01.399Z,2.57
2019-02-11T16:56:32.890Z,2.33
2019-02-11T16:59:05.970Z,2.63
2019-02-11T17:01:37.813Z,2.63
2019-02-11T17:04:09.307Z,2.90
2019-02-11T17:06:40.982Z,2.70
2019-02-11T17:09:13.560Z,2.17
2019-02-11T17:11:46.131Z,2.37
2019-02-11T17:14:17.782Z,2.80
2019-02-11T17:16:49.305Z,3.73
2019-02-11T17:19:20.997Z,3.57
2019-02-11T17:21:52.765Z,3.90
2019-02-11T17:24:24.406Z,3.83
2019-02-11T17:26:57.219Z,5.00
2019-02-11T17:29:29.172Z,6.27
2019-02-11T17:32:01.178Z,7.30
2019-02-11T17:34:33.739Z,7.17
2019-02-11T17:37:06.525Z,5.87
2019-02-11T17:39:37.982Z,4.30
2019-02-11T17:42:11.173Z,4.43
2019-02-11T17:44:42.925Z,4.47
2019-02-11T17:47:14.893Z,4.83
2019-02-11T17:49:48.639Z,4.47
2019-02-11T17:52:19.994Z,6.77
2019-02-11T17:54:51.686Z,13.23
2019-02-11T17:57:23.221Z,11.07
2019-02-11T17:59:54.686Z,8.83
2019-02-11T18:02:26.633Z,8.90
2019-02-11T18:04:58.464Z,8.40
2019-02-11T18:07:29.991Z,9.27
2019-02-11T18:10:01.473Z,9.13
2019-02-11T18:12:35.653Z,9.97
2019-02-11T18:15:08.078Z,7.77
2019-02-11T18:17:40.143Z,6.63
2019-02-11T18:20:13.477Z,6.20
2019-02-11T18:22:44.878Z,5.13
2019-02-11T18:25:17.589Z,5.27
2019-02-11T18:27:49.108Z,4.87
2019-02-11T18:30:21.104Z,4.80
2019-02-11T18:32:52.788Z,4.77
2019-02-11T18:35:24.906Z,4.37
2019-02-11T18:37:56.310Z,9.47
2019-02-11T18:40:28.045Z,7.30
2019-02-11T18:43:00.416Z,6.90
2019-02-11T18:45:31.871Z,6.87
2019-02-11T18:48:03.745Z,7.27
2019-02-11T18:50:36.662Z,5.73
2019-02-11T18:53:08.547Z,6.30
2019-02-11T18:55:40.811Z,5.47
2019-02-11T18:58:12.314Z,5.00
2019-02-11T19:00:45.270Z,5.10
2019-02-11T19:03:16.748Z,5.20
2019-02-11T19:05:49.785Z,5.17
2019-02-11T19:08:21.534Z,5.00
2019-02-11T19:10:52.976Z,5.40
2019-02-11T19:13:26.418Z,4.53
2019-02-11T19:15:57.934Z,5.30
2019-02-11T19:18:30.899Z,5.87
2019-02-11T19:21:02.324Z,5.90
2019-02-11T19:23:34.114Z,6.37
2019-02-11T19:26:05.801Z,8.00
2019-02-11T19:28:37.463Z,8.63
2019-02-11T19:31:10.932Z,8.20
2019-02-11T19:33:42.689Z,6.97
2019-02-11T19:36:17.530Z,6.20
2019-02-11T19:38:49.602Z,5.23
2019-02-11T19:41:21.276Z,5.00
2019-02-11T19:43:54.705Z,4.50
2019-02-11T19:46:26.194Z,4.40
2019-02-11T19:48:58.093Z,4.40
2019-02-11T19:51:30.264Z,4.57
2019-02-11T19:54:01.945Z,4.90
2019-02-11T19:56:33.921Z,4.87
2019-02-11T19:59:05.551Z,5.90
2019-02-11T20:01:38.041Z,5.60
2019-02-11T20:04:09.441Z,6.17
2019-02-11T20:06:41.346Z,6.53
2019-02-11T20:09:13.291Z,5.83
2019-02-11T20:11:44.755Z,5.97
2019-02-11T20:14:16.115Z,6.80
2019-02-11T20:16:48.209Z,7.63
2019-02-11T20:19:19.829Z,7.10
2019-02-11T20:21:51.495Z,6.60
2019-02-11T20:24:24.018Z,6.07
2019-02-11T20:26:57.760Z,6.37
2019-02-11T20:29:29.569Z,6.63
2019-02-11T20:32:03.170Z,6.80
2019-02-11T20:34:35.099Z,7.10
2019-02-11T20:37:06.584Z,7.80
2019-02-11T20:39:39.205Z,7.63
2019-02-11T20:42:10.707Z,6.97
2019-02-11T20:44:42.349Z,7.23
2019-02-11T20:47:13.779Z,7.43
2019-02-11T20:49:45.306Z,7.93
2019-02-11T20:52:17.206Z,8.13
2019-02-11T20:54:50.444Z,7.67
2019-02-11T20:57:22.107Z,8.47
2019-02-11T20:59:54.288Z,8.53
2019-02-11T21:02:26.560Z,8.93
2019-02-11T21:04:58.292Z,9.27
2019-02-11T21:07:30.620Z,13.73
2019-02-11T21:10:03.341Z,13.97
2019-02-11T21:12:35.075Z,14.77
2019-02-11T21:15:11.854Z,11.90
2019-02-11T21:17:45.348Z,10.10
2019-02-11T21:20:19.846Z,10.00
2019-02-11T21:22:51.518Z,10.80
2019-02-11T21:25:23.360Z,10.37
2019-02-11T21:27:55.116Z,9.13
2019-02-11T21:30:26.738Z,9.70
2019-02-11T21:32:59.512Z,10.40
2019-02-11T21:35:31.966Z,9.27
2019-02-11T21:38:03.621Z,8.43
2019-02-11T21:40:34.950Z,9.33
2019-02-11T21:43:06.516Z,9.07
2019-02-11T21:45:37.969Z,8.40
2019-02-11T21:48:09.797Z,9.47
2019-02-11T21:50:44.649Z,9.80
2019-02-11T21:53:16.019Z,9.73
2019-02-11T21:55:47.561Z,8.57
2019-02-11T21:58:20.108Z,7.90
2019-02-11T22:00:51.590Z,8.90
2019-02-11T22:03:23.161Z,10.20
2019-02-11T22:05:54.537Z,9.97
2019-02-11T22:08:26.506Z,9.40
2019-02-11T22:10:58.729Z,9.67
2019-02-11T22:13:30.668Z,8.80
2019-02-11T22:16:02.182Z,8.00
2019-02-11T22:18:33.752Z,8.70
2019-02-11T22:21:05.581Z,10.33
2019-02-11T22:23:37.301Z,10.10
2019-02-11T22:26:08.891Z,9.20
2019-02-11T22:28:40.273Z,8.70
2019-02-11T22:31:13.184Z,9.83
2019-02-11T22:33:45.058Z,9.73
2019-02-11T22:36:16.859Z,9.10
2019-02-11T22:38:48.461Z,9.37
2019-02-11T22:41:20.519Z,8.90
2019-02-11T22:43:52.165Z,10.00
2019-02-11T22:46:24.175Z,9.67
2019-02-11T22:48:56.235Z,9.40
2019-02-11T22:51:27.849Z,9.77
2019-02-11T22:53:59.267Z,10.23
2019-02-11T22:56:31.553Z,9.40
2019-02-11T22:59:03.110Z,9.83
2019-02-11T23:01:34.924Z,9.87
2019-02-11T23:04:06.991Z,9.83
2019-02-11T23:06:38.597Z,8.87
2019-02-11T23:09:13.339Z,8.73
2019-02-11T23:11:46.066Z,8.43
2019-02-11T23:14:17.910Z,7.80
2019-02-11T23:16:49.553Z,8.53
2019-02-11T23:19:24.187Z,8.50
2019-02-11T23:21:57.511Z,7.57
2019-02-11T23:24:28.844Z,7.67
2019-02-11T23:27:02.656Z,7.53
2019-02-11T23:29:34.818Z,7.67
2019-02-11T23:32:06.923Z,7.47
2019-02-11T23:34:38.765Z,7.47
2019-02-11T23:37:10.271Z,7.83
2019-02-11T23:39:41.692Z,7.77
2019-02-11T23:42:14.679Z,8.10
2019-02-11T23:44:46.478Z,8.23
2019-02-11T23:47:19.360Z,9.50
2019-02-11T23:49:50.928Z,8.90
2019-02-11T23:52:23.693Z,8.93
2019-02-11T23:54:57.028Z,9.10
2019-02-11T23:57:29.385Z,8.77
